createdAt,value
2023-04-24T17:59:08.469Z,18.33
2023-04-24T18:01:44.147Z,18.12
2023-04-24T18:04:16.689Z,18.16
2023-04-24T18:06:49.987Z,18.34
2023-04-24T18:09:22.374Z,18.82
2023-04-24T18:11:57.930Z,18.62
2023-04-24T18:14:31.557Z,18.83
2023-04-24T18:17:04.432Z,18.88
2023-04-24T18:19:38.753Z,18.65
2023-04-24T18:22:19.808Z,18.62
2023-04-24T18:24:56.126Z,19.77
2023-04-24T18:27:34.016Z,18.91
2023-04-24T18:30:10.060Z,18.77
2023-04-24T18:32:43.171Z,18.86
2023-04-24T18:35:19.397Z,18.74
2023-04-24T18:37:51.134Z,18.79
2023-04-24T18:40:22.859Z,18.70
2023-04-24T18:43:04.195Z,18.79
2023-04-24T18:45:40.411Z,18.74
2023-04-24T18:48:13.091Z,18.75
2023-04-24T18:50:46.057Z,18.79
2023-04-24T18:53:21.507Z,18.78
2023-04-24T18:55:54.469Z,18.59
2023-04-24T18:58:26.389Z,18.94
2023-04-24T19:00:58.094Z,18.62
2023-04-24T19:03:30.143Z,18.84
2023-04-24T19:06:10.015Z,18.71
2023-04-24T19:08:43.353Z,18.51
2023-04-24T19:11:14.951Z,18.56
2023-04-24T19:13:48.776Z,18.75
2023-04-24T19:16:20.507Z,18.82
2023-04-24T19:18:52.668Z,18.75
2023-04-24T19:21:39.482Z,18.58
2023-04-24T19:24:24.070Z,18.49
2023-04-24T19:26:56.247Z,18.40
2023-04-24T19:29:29.150Z,18.35
2023-04-24T19:32:05.014Z,18.56
2023-04-24T19:34:42.185Z,18.64
2023-04-24T19:37:17.020Z,18.57
2023-04-24T19:39:53.774Z,18.65
2023-04-24T19:42:42.620Z,18.68
2023-04-24T19:45:03.640Z,18.61
2023-04-24T19:47:35.415Z,18.98
2023-04-24T19:50:16.494Z,19.08
2023-04-24T19:52:48.784Z,19.28
2023-04-24T19:55:21.344Z,19.30
2023-04-24T19:57:55.496Z,19.25
2023-04-24T20:00:30.434Z,19.09
2023-04-24T20:03:03.154Z,19.50
2023-04-24T20:05:35.950Z,19.47
2023-04-24T20:08:07.835Z,19.22
2023-04-24T20:10:43.644Z,19.19
2023-04-24T20:13:19.924Z,19.07
2023-04-24T20:15:53.116Z,19.16
2023-04-24T20:18:40.149Z,19.08
2023-04-24T20:27:39.777Z,19.59
2023-04-24T20:30:13.879Z,19.51
2023-04-24T20:32:46.621Z,19.41
2023-04-24T20:35:18.434Z,19.38
2023-04-24T20:37:51.335Z,19.36
2023-04-24T20:40:28.254Z,19.24
2023-04-24T20:43:04.959Z,19.21
2023-04-24T20:45:43.463Z,19.37
2023-04-24T20:48:24.032Z,19.29
2023-04-24T20:51:01.163Z,19.29
2023-04-24T20:53:44.134Z,19.07
2023-04-24T20:56:37.251Z,19.10
2023-04-24T20:59:18.435Z,19.28
2023-04-24T21:01:53.859Z,19.16
2023-04-24T21:04:32.634Z,19.22
2023-04-24T21:07:18.315Z,19.36
2023-04-24T21:09:51.266Z,19.29
2023-04-24T21:12:25.621Z,19.32
2023-04-24T21:15:16.628Z,19.53
2023-04-24T21:18:05.162Z,19.44
2023-04-24T21:24:15.407Z,19.20
2023-04-24T21:27:08.616Z,19.10
2023-04-24T21:29:58.320Z,19.26
2023-04-24T21:32:37.624Z,19.25
2023-04-24T21:35:31.054Z,19.52
2023-04-24T21:38:05.882Z,19.64
2023-04-24T21:40:41.269Z,20.35
2023-04-24T21:43:13.502Z,20.49
2023-04-24T21:45:46.659Z,20.44
2023-04-24T21:52:03.190Z,20.50
2023-04-24T21:55:17.681Z,20.10
2023-04-24T21:58:31.312Z,20.20
2023-04-24T22:01:12.233Z,20.23
2023-04-24T22:03:48.327Z,20.39
2023-04-24T22:09:42.076Z,20.49
2023-04-24T22:15:24.417Z,21.00
2023-04-24T22:18:24.529Z,20.93
2023-04-24T22:20:56.882Z,20.84
2023-04-24T22:23:49.369Z,20.93
2023-04-24T22:26:52.190Z,20.64
2023-04-24T22:29:34.090Z,20.49
2023-04-24T22:32:13.322Z,20.70
2023-04-24T22:34:52.011Z,21.21
2023-04-24T22:37:34.011Z,20.89
2023-04-24T22:40:07.661Z,21.05
2023-04-24T22:42:41.111Z,20.54
2023-04-24T22:45:14.998Z,20.30
2023-04-24T22:47:46.971Z,20.51
2023-04-24T22:50:20.528Z,20.46
2023-04-24T22:52:52.300Z,20.42
2023-04-24T22:55:24.170Z,20.63
2023-04-24T22:57:57.602Z,20.31
2023-04-24T23:00:29.800Z,20.10
2023-04-24T23:03:01.918Z,20.10
2023-04-24T23:05:33.780Z,20.22
2023-04-24T23:08:05.386Z,20.05
2023-04-24T23:10:37.424Z,20.48
2023-04-24T23:13:14.843Z,20.46
2023-04-24T23:15:47.395Z,20.31
2023-04-24T23:18:19.396Z,20.46
2023-04-24T23:20:51.483Z,20.85
2023-04-24T23:23:23.168Z,21.59
2023-04-24T23:25:55.013Z,21.44
2023-04-24T23:28:27.214Z,21.20
2023-04-24T23:30:58.912Z,21.23
2023-04-24T23:33:30.649Z,20.82
2023-04-24T23:36:02.292Z,20.69
2023-04-24T23:38:43.135Z,20.53
2023-04-24T23:41:07.675Z,20.70
2023-04-24T23:43:39.281Z,20.68
2023-04-24T23:46:10.916Z,21.14
2023-04-24T23:48:42.539Z,21.13
2023-04-24T23:51:14.200Z,20.92
2023-04-24T23:53:46.871Z,21.00
2023-04-24T23:56:18.731Z,21.85
2023-04-24T23:58:50.605Z,21.67
